Time;durP1;ratioP1;P1;durP2;ratioP2;P2;SDS_P1;SDS_P2;PMS_P1;PMS_P2;Temp;Humidity;BMP_temperature;BMP_pressure;BME280_temperature;BME280_humidity;BME280_pressure;Samples;Min_cycle;Max_cycle;Signal;HPM_P1;HPM_P2
2021/03/22 00:01:35;;;;;;;22.50;9.57;;;4.00;86.70;;;;;;5071615;28;20191;-85
2021/03/22 00:04:02;;;;;;;16.02;8.52;;;3.70;87.00;;;;;;5071079;28;20206;-85
2021/03/22 00:06:29;;;;;;;14.95;8.35;;;3.70;87.40;;;;;;5071277;28;20211;-85
2021/03/22 00:08:57;;;;;;;24.42;9.57;;;3.90;87.60;;;;;;5070684;28;20199;-86
2021/03/22 00:11:23;;;;;;;23.55;9.00;;;3.90;86.70;;;;;;5071321;28;20199;-86
2021/03/22 00:13:50;;;;;;;22.05;9.82;;;3.90;87.00;;;;;;5070565;28;20213;-86
2021/03/22 00:16:17;;;;;;;21.08;9.07;;;4.00;87.30;;;;;;5071314;28;20617;-85
2021/03/22 00:18:43;;;;;;;17.35;9.73;;;4.10;86.70;;;;;;5071067;28;20257;-85
2021/03/22 00:21:13;;;;;;;17.20;9.93;;;3.90;86.70;;;;;;5063751;28;20203;-86
2021/03/22 00:23:40;;;;;;;20.13;8.40;;;3.80;86.90;;;;;;5070515;28;20587;-86
2021/03/22 00:26:07;;;;;;;22.27;8.05;;;3.70;87.60;;;;;;5070570;28;20230;-86
2021/03/22 00:28:39;;;;;;;16.73;8.75;;;3.70;88.20;;;;;;5070930;28;20195;-85
2021/03/22 00:31:07;;;;;;;17.02;7.35;;;3.90;88.00;;;;;;5070676;28;20656;-85
2021/03/22 00:33:34;;;;;;;21.80;9.88;;;4.20;87.60;;;;;;5070450;28;20698;-86
2021/03/22 00:36:01;;;;;;;20.52;7.40;;;4.30;86.10;;;;;;5070691;28;20195;-86
2021/03/22 00:38:28;;;;;;;21.13;8.90;;;4.30;85.90;;;;;;5070825;28;20199;-86
2021/03/22 00:40:55;;;;;;;19.13;9.15;;;4.30;86.00;;;;;;5070554;28;20198;-86
2021/03/22 00:43:22;;;;;;;18.77;8.35;;;4.50;86.40;;;;;;5070977;28;20215;-86
2021/03/22 00:45:49;;;;;;;14.57;7.72;;;4.50;85.40;;;;;;5066695;28;20226;-86
2021/03/22 00:48:15;;;;;;;17.48;7.70;;;4.70;85.10;;;;;;5071019;28;20206;-85
2021/03/22 00:50:43;;;;;;;20.55;8.75;;;4.70;84.60;;;;;;5070613;28;20191;-86
2021/03/22 00:53:11;;;;;;;15.25;9.43;;;4.50;85.00;;;;;;5069750;28;20195;-86
2021/03/22 00:55:38;;;;;;;15.40;7.10;;;4.50;85.30;;;;;;5070186;28;20199;-86
2021/03/22 00:58:05;;;;;;;15.32;7.72;;;4.30;85.60;;;;;;5070475;28;20562;-85
2021/03/22 01:00:34;;;;;;;17.05;7.50;;;4.30;85.70;;;;;;5070408;28;20558;-86
2021/03/22 01:03:01;;;;;;;19.08;8.13;;;4.30;85.80;;;;;;5069869;28;20199;-86
2021/03/22 01:05:28;;;;;;;19.15;6.85;;;4.10;86.30;;;;;;5070051;28;20242;-85
2021/03/22 01:07:55;;;;;;;10.38;6.93;;;4.20;86.80;;;;;;5070457;28;20829;-85
2021/03/22 01:10:31;;;;;;;16.70;8.07;;;4.50;86.60;;;;;;5070247;28;20196;-86
2021/03/22 01:12:59;;;;;;;17.00;6.97;;;4.40;85.50;;;;;;5069624;28;20248;-86
2021/03/22 01:15:26;;;;;;;22.58;7.70;;;4.10;84.90;;;;;;5070406;28;20215;-85
2021/03/22 01:17:53;;;;;;;22.10;8.30;;;4.10;86.30;;;;;;5069891;28;20218;-86
2021/03/22 01:20:24;;;;;;;21.52;7.20;;;4.00;86.20;;;;;;5063590;28;20199;-85
2021/03/22 01:22:50;;;;;;;11.50;6.63;;;3.90;86.70;;;;;;5062205;28;20199;-86
2021/03/22 01:25:17;;;;;;;20.52;8.45;;;4.00;86.50;;;;;;5069864;28;20233;-86
2021/03/22 01:27:43;;;;;;;19.30;8.90;;;3.90;86.90;;;;;;5070228;28;20245;-85
2021/03/22 01:30:19;;;;;;;13.20;6.30;;;3.80;86.90;;;;;;5069815;28;20207;-85
2021/03/22 01:32:46;;;;;;;23.05;8.55;;;4.10;87.00;;;;;;5070036;28;20203;-85
2021/03/22 01:35:12;;;;;;;13.55;6.45;;;4.00;85.90;;;;;;5069560;28;20191;-86
2021/03/22 01:37:39;;;;;;;12.35;6.75;;;4.00;85.70;;;;;;5070062;28;20199;-86
2021/03/22 01:40:16;;;;;;;18.80;6.22;;;4.00;85.30;;;;;;5069796;28;20191;-86
2021/03/22 01:42:55;;;;;;;14.05;6.40;;;3.90;85.10;;;;;;5069376;28;20660;-85
2021/03/22 01:45:22;;;;;;;10.75;6.55;;;4.00;86.10;;;;;;5069941;28;20214;-86
2021/03/22 01:47:49;;;;;;;13.35;5.85;;;3.90;85.10;;;;;;5069901;28;20676;-86
2021/03/22 01:50:22;;;;;;;22.90;7.47;;;3.90;85.50;;;;;;5069638;28;20566;-86
2021/03/22 01:52:50;;;;;;;22.42;8.70;;;3.90;85.30;;;;;;5069634;28;20249;-86
2021/03/22 01:55:18;;;;;;;24.70;7.72;;;4.00;85.50;;;;;;5068998;28;20278;-86
2021/03/22 01:57:46;;;;;;;19.75;6.80;;;4.00;85.50;;;;;;5070171;28;20198;-85
2021/03/22 02:00:18;;;;;;;14.50;6.18;;;4.00;85.50;;;;;;5069416;28;20244;-86
2021/03/22 02:02:47;;;;;;;12.18;6.28;;;4.00;85.30;;;;;;5069568;28;20227;-86
2021/03/22 02:05:19;;;;;;;9.75;5.10;;;4.00;85.10;;;;;;5069865;28;20215;-86
2021/03/22 02:07:52;;;;;;;19.77;6.45;;;3.90;85.30;;;;;;5069873;28;20203;-85
2021/03/22 02:10:20;;;;;;;26.23;6.47;;;3.90;86.20;;;;;;5069860;28;20649;-85
2021/03/22 02:12:48;;;;;;;23.42;7.07;;;4.00;85.70;;;;;;5063979;28;20195;-85
2021/03/22 02:15:16;;;;;;;17.23;7.55;;;4.10;85.40;;;;;;5065848;28;20732;-86
2021/03/22 02:17:57;;;;;;;14.90;6.20;;;4.10;85.20;;;;;;5067101;28;20237;-86
2021/03/22 02:20:58;;;;;;;18.05;5.53;;;4.30;85.70;;;;;;5068982;28;20564;-84
2021/03/22 02:24:17;;;;;;;9.77;6.15;;;4.10;85.00;;;;;;5069512;28;20296;-86
2021/03/22 02:27:17;;;;;;;12.98;6.32;;;4.00;85.70;;;;;;5052772;28;20223;-85
2021/03/22 02:30:01;;;;;;;12.70;6.30;;;4.00;85.70;;;;;;5058858;28;20196;-86
2021/03/22 02:33:04;;;;;;;10.93;7.03;;;4.00;85.90;;;;;;5069310;28;20265;-86
2021/03/22 02:35:36;;;;;;;17.80;6.85;;;4.00;85.90;;;;;;5070342;28;20235;-85
2021/03/22 02:38:08;;;;;;;23.98;6.43;;;3.80;86.50;;;;;;5069624;28;20195;-86
2021/03/22 02:40:43;;;;;;;16.55;5.95;;;3.70;87.00;;;;;;5069753;28;20198;-86
2021/03/22 02:43:10;;;;;;;15.88;6.22;;;3.80;88.10;;;;;;5068928;28;20233;-86
2021/03/22 02:45:40;;;;;;;16.42;6.25;;;3.90;86.90;;;;;;5069709;28;20219;-86
2021/03/22 02:48:15;;;;;;;17.77;5.82;;;4.10;86.70;;;;;;5069665;28;20203;-85
2021/03/22 02:50:46;;;;;;;13.77;6.05;;;3.90;86.30;;;;;;5071641;28;20201;-86
2021/03/22 02:53:28;;;;;;;12.10;5.50;;;3.90;86.70;;;;;;5072490;28;20253;-85
2021/03/22 02:56:09;;;;;;;10.73;5.45;;;4.10;86.70;;;;;;5053548;28;20237;-86
2021/03/22 02:58:45;;;;;;;9.13;4.78;;;4.00;86.70;;;;;;5053226;28;20227;-86
2021/03/22 03:01:18;;;;;;;15.05;6.55;;;3.70;86.10;;;;;;5072417;28;20195;-86
2021/03/22 03:03:51;;;;;;;12.93;5.45;;;3.80;86.70;;;;;;5072115;28;20733;-86
2021/03/22 03:06:20;;;;;;;16.65;5.90;;;3.90;86.70;;;;;;5072884;28;20214;-86
2021/03/22 03:08:48;;;;;;;13.55;5.20;;;3.80;86.40;;;;;;5072945;28;20252;-85
2021/03/22 03:11:15;;;;;;;14.98;5.75;;;3.80;86.10;;;;;;5072970;28;20671;-86
2021/03/22 03:13:42;;;;;;;12.38;5.20;;;3.90;85.80;;;;;;5071595;28;20199;-86
2021/03/22 03:16:08;;;;;;;12.10;5.70;;;4.00;85.30;;;;;;5072576;28;20195;-85
2021/03/22 03:18:35;;;;;;;14.73;6.53;;;3.90;85.70;;;;;;5057379;28;20222;-86
2021/03/22 03:21:01;;;;;;;16.65;5.30;;;4.00;85.70;;;;;;5072935;28;20530;-86
2021/03/22 03:23:30;;;;;;;10.32;5.28;;;3.90;85.50;;;;;;5071551;28;20200;-86
2021/03/22 03:25:57;;;;;;;16.58;5.40;;;4.00;85.30;;;;;;5072134;28;20212;-86
2021/03/22 03:28:23;;;;;;;16.75;6.60;;;4.20;84.80;;;;;;5071954;28;21307;-85
2021/03/22 03:30:49;;;;;;;16.40;4.68;;;4.10;83.90;;;;;;5072076;28;20202;-86
2021/03/22 03:33:16;;;;;;;13.60;4.97;;;4.20;83.90;;;;;;5072122;28;20203;-87
2021/03/22 03:35:47;;;;;;;18.58;5.80;;;4.10;83.40;;;;;;5071856;28;20196;-85
2021/03/22 03:38:13;;;;;;;12.48;4.55;;;3.70;83.40;;;;;;5073003;28;20668;-86
2021/03/22 03:40:43;;;;;;;18.40;5.20;;;3.60;84.40;;;;;;5072327;28;20207;-85
2021/03/22 03:43:10;;;;;;;11.98;5.05;;;3.60;85.50;;;;;;5072133;28;20203;-86
2021/03/22 03:45:39;;;;;;;15.82;4.88;;;3.40;86.00;;;;;;5052025;28;20223;-86
2021/03/22 03:48:08;;;;;;;13.32;5.50;;;3.40;86.50;;;;;;5069280;28;20687;-85
2021/03/22 03:50:35;;;;;;;12.18;5.75;;;3.50;86.60;;;;;;5072088;28;20302;-86
2021/03/22 03:53:02;;;;;;;17.67;7.55;;;3.60;87.30;;;;;;5071378;28;20199;-85
2021/03/22 03:55:31;;;;;;;13.60;5.88;;;3.40;86.80;;;;;;5071727;28;20244;-85
2021/03/22 03:57:59;;;;;;;16.92;5.25;;;3.60;87.20;;;;;;5071947;28;20540;-85
2021/03/22 04:00:29;;;;;;;26.65;6.00;;;3.40;86.90;;;;;;5071568;28;20203;-85
2021/03/22 04:02:56;;;;;;;14.70;4.78;;;3.40;87.20;;;;;;5072039;28;20656;-85
2021/03/22 04:05:26;;;;;;;11.63;5.32;;;3.20;87.70;;;;;;5071206;28;20222;-85
2021/03/22 04:07:53;;;;;;;9.88;5.57;;;3.30;88.30;;;;;;5070668;28;20726;-84
2021/03/22 04:10:20;;;;;;;10.85;4.30;;;3.30;88.70;;;;;;5071474;28;20670;-85
2021/03/22 04:12:47;;;;;;;15.77;5.45;;;3.20;88.10;;;;;;5070914;28;20191;-84
2021/03/22 04:15:16;;;;;;;8.88;4.85;;;3.30;88.70;;;;;;5071316;28;20606;-85
2021/03/22 04:17:43;;;;;;;15.25;5.22;;;3.30;87.90;;;;;;5071438;28;20300;-85
2021/03/22 04:20:12;;;;;;;19.02;5.72;;;3.20;88.20;;;;;;5071539;28;20196;-85
2021/03/22 04:22:38;;;;;;;18.10;6.75;;;3.40;88.20;;;;;;5071229;28;20203;-85
2021/03/22 04:25:07;;;;;;;10.50;3.92;;;3.30;87.80;;;;;;5071298;28;20203;-86
2021/03/22 04:27:33;;;;;;;7.68;5.03;;;3.10;87.80;;;;;;5071337;28;20195;-85
2021/03/22 04:30:00;;;;;;;8.48;4.10;;;3.20;87.60;;;;;;5071476;28;20566;-85
2021/03/22 04:32:27;;;;;;;12.70;4.63;;;3.20;87.30;;;;;;5071256;28;20673;-85
2021/03/22 04:34:53;;;;;;;21.05;5.10;;;3.30;86.90;;;;;;5071216;28;20199;-85
2021/03/22 04:37:20;;;;;;;15.48;6.03;;;3.40;86.50;;;;;;5071187;28;20192;-85
2021/03/22 04:39:46;;;;;;;12.52;4.82;;;3.50;86.40;;;;;;5070895;28;20230;-86
2021/03/22 04:42:13;;;;;;;23.75;5.95;;;3.60;85.70;;;;;;5070936;28;20203;-85
2021/03/22 04:44:39;;;;;;;12.18;4.40;;;3.50;85.50;;;;;;5070299;28;20874;-85
2021/03/22 04:47:06;;;;;;;12.80;4.72;;;3.60;85.60;;;;;;5070796;28;20243;-85
2021/03/22 04:49:34;;;;;;;17.65;6.13;;;3.60;85.40;;;;;;5071192;28;20199;-85
2021/03/22 04:52:00;;;;;;;14.88;5.18;;;3.60;85.60;;;;;;5070654;28;20199;-85
2021/03/22 04:54:26;;;;;;;16.25;6.25;;;3.60;85.40;;;;;;5069739;28;20653;-85
2021/03/22 04:56:53;;;;;;;18.17;5.82;;;3.50;85.80;;;;;;5071036;28;20241;-85
2021/03/22 04:59:19;;;;;;;17.63;5.65;;;3.60;86.40;;;;;;5070310;28;20248;-85
2021/03/22 05:01:47;;;;;;;21.63;6.20;;;3.50;86.20;;;;;;5070605;28;20886;-85
2021/03/22 05:04:14;;;;;;;9.38;5.35;;;3.40;86.40;;;;;;5070226;28;20570;-85
2021/03/22 05:06:41;;;;;;;14.40;5.35;;;3.60;86.60;;;;;;5070659;28;20223;-85
2021/03/22 05:09:08;;;;;;;15.63;4.50;;;3.40;85.80;;;;;;5069713;28;20559;-85
2021/03/22 05:11:34;;;;;;;19.70;4.95;;;3.50;85.40;;;;;;5070518;28;20222;-84
2021/03/22 05:14:01;;;;;;;8.02;4.95;;;3.30;85.60;;;;;;5069635;28;20718;-85
2021/03/22 05:16:27;;;;;;;13.13;5.00;;;3.20;85.90;;;;;;5070558;28;20248;-85
2021/03/22 05:18:53;;;;;;;14.93;4.90;;;3.10;86.20;;;;;;5070777;28;20252;-86
2021/03/22 05:21:20;;;;;;;10.52;4.38;;;3.00;85.90;;;;;;5070531;28;20613;-85
2021/03/22 05:23:48;;;;;;;14.40;4.70;;;3.00;85.90;;;;;;5069735;28;20195;-85
2021/03/22 05:26:14;;;;;;;10.25;4.90;;;3.10;86.20;;;;;;5069967;28;20259;-85
2021/03/22 05:28:41;;;;;;;12.15;4.53;;;3.10;86.10;;;;;;5070236;28;20264;-86
2021/03/22 05:31:09;;;;;;;19.98;4.40;;;3.30;86.10;;;;;;5069925;28;20544;-86
2021/03/22 05:33:35;;;;;;;12.70;5.05;;;3.40;85.00;;;;;;5069585;28;20217;-86
2021/03/22 05:36:02;;;;;;;17.83;4.90;;;3.40;84.00;;;;;;5070165;28;20203;-86
2021/03/22 05:38:31;;;;;;;17.50;4.03;;;3.60;83.90;;;;;;5070549;28;20222;-86
2021/03/22 05:41:01;;;;;;;17.08;3.90;;;3.60;83.70;;;;;;5070604;28;20256;-85
2021/03/22 05:43:53;;;;;;;10.55;3.33;;;3.80;83.50;;;;;;5070370;28;20207;-86
2021/03/22 05:46:40;;;;;;;9.25;3.85;;;3.60;82.40;;;;;;5050336;28;20223;-86
2021/03/22 05:49:36;;;;;;;23.00;4.13;;;3.70;82.70;;;;;;5058742;28;20522;-86
2021/03/22 05:52:35;;;;;;;9.82;3.45;;;3.60;82.40;;;;;;5068805;28;20542;-85
2021/03/22 05:55:33;;;;;;;6.32;3.67;;;3.70;82.60;;;;;;5005467;28;20216;-85
2021/03/22 05:58:21;;;;;;;10.27;4.35;;;3.40;83.00;;;;;;5070534;28;20696;-85
2021/03/22 06:00:53;;;;;;;9.38;3.78;;;3.50;83.90;;;;;;5070294;28;20196;-85
2021/03/22 06:03:27;;;;;;;11.95;4.40;;;3.30;83.90;;;;;;5069427;28;20700;-85
2021/03/22 06:06:03;;;;;;;14.65;4.72;;;3.20;84.30;;;;;;5070359;28;20223;-85
2021/03/22 06:08:36;;;;;;;14.82;5.43;;;3.40;84.80;;;;;;5070252;28;20553;-85
2021/03/22 06:11:16;;;;;;;15.75;4.25;;;3.60;84.50;;;;;;5069791;28;20199;-86
2021/03/22 06:13:46;;;;;;;7.43;4.32;;;3.50;83.90;;;;;;5069446;28;20199;-85
2021/03/22 06:16:23;;;;;;;14.02;4.35;;;3.50;84.80;;;;;;5050668;28;20204;-86
2021/03/22 06:19:03;;;;;;;13.38;5.15;;;3.40;84.80;;;;;;5066509;28;20210;-85
2021/03/22 06:21:33;;;;;;;12.35;5.30;;;3.50;85.10;;;;;;5056248;28;20282;-85
2021/03/22 06:24:02;;;;;;;17.35;4.90;;;3.20;85.70;;;;;;5070497;28;20245;-86
2021/03/22 06:26:38;;;;;;;15.93;4.75;;;3.40;86.80;;;;;;5073506;28;20273;-86
2021/03/22 06:29:13;;;;;;;19.55;5.25;;;3.40;87.20;;;;;;5073840;28;20722;-86
2021/03/22 06:31:41;;;;;;;12.88;5.30;;;3.50;87.30;;;;;;5073307;28;20293;-86
2021/03/22 06:34:10;;;;;;;13.88;6.88;;;3.40;87.50;;;;;;5073045;28;20692;-86
2021/03/22 06:36:37;;;;;;;14.63;5.43;;;3.40;87.60;;;;;;5073409;28;20191;-85
2021/03/22 06:39:07;;;;;;;14.50;5.15;;;3.60;87.80;;;;;;5073369;28;20196;-86
2021/03/22 06:41:38;;;;;;;14.75;5.80;;;3.50;87.60;;;;;;5073410;28;20210;-86
2021/03/22 06:44:08;;;;;;;13.90;4.50;;;3.60;88.20;;;;;;5073213;28;20203;-85
2021/03/22 06:46:52;;;;;;;12.43;4.78;;;3.70;88.00;;;;;;5073196;28;20218;-85
2021/03/22 06:49:24;;;;;;;14.57;5.45;;;3.50;87.70;;;;;;5073651;28;20302;-87
2021/03/22 06:51:59;;;;;;;12.32;4.75;;;3.50;87.40;;;;;;5073984;28;20207;-86
2021/03/22 06:54:35;;;;;;;7.07;4.47;;;3.60;87.60;;;;;;5073761;28;20203;-87
2021/03/22 06:57:05;;;;;;;19.95;5.35;;;3.90;87.60;;;;;;5073875;28;20607;-86
2021/03/22 06:59:33;;;;;;;9.82;4.82;;;3.90;86.50;;;;;;5073678;28;20546;-86
2021/03/22 07:02:19;;;;;;;17.70;4.43;;;4.10;86.10;;;;;;5073162;28;20195;-86
2021/03/22 07:04:46;;;;;;;11.30;5.28;;;3.60;86.10;;;;;;5073237;28;20203;-87
2021/03/22 07:07:16;;;;;;;14.02;5.43;;;3.70;87.30;;;;;;5073471;28;20622;-86
2021/03/22 07:09:45;;;;;;;7.50;3.83;;;3.70;87.30;;;;;;5073465;28;20191;-87
2021/03/22 07:12:40;;;;;;;12.90;5.03;;;4.00;87.40;;;;;;5072891;28;20192;-86
2021/03/22 07:15:25;;;;;;;15.95;5.40;;;4.00;86.50;;;;;;5028494;28;20712;-86
2021/03/22 07:18:04;;;;;;;14.35;5.18;;;3.80;86.50;;;;;;5070138;28;20217;-87
2021/03/22 07:20:32;;;;;;;19.70;5.43;;;4.00;86.30;;;;;;5072171;28;20733;-87
2021/03/22 07:23:33;;;;;;;7.88;4.00;;;3.80;86.10;;;;;;5072729;28;20207;-86
2021/03/22 07:26:06;;;;;;;12.95;3.63;;;3.70;86.50;;;;;;5054198;28;20228;-87
2021/03/22 07:28:46;;;;;;;12.15;4.32;;;3.90;87.00;;;;;;5072546;28;20203;-87
2021/03/22 07:31:24;;;;;;;13.73;4.63;;;3.80;86.50;;;;;;5073010;28;20196;-87
2021/03/22 07:34:10;;;;;;;8.77;4.55;;;3.80;86.50;;;;;;5072107;28;20653;-87
2021/03/22 07:36:44;;;;;;;15.05;4.95;;;3.80;86.80;;;;;;5072348;28;20737;-87
2021/03/22 07:39:20;;;;;;;10.82;4.03;;;3.70;85.90;;;;;;5072732;28;20271;-87
2021/03/22 07:42:09;;;;;;;10.15;4.75;;;3.90;85.80;;;;;;5060788;28;20199;-86
2021/03/22 07:45:15;;;;;;;11.40;4.45;;;3.80;85.80;;;;;;5072232;28;20203;-87
2021/03/22 07:47:56;;;;;;;10.90;4.53;;;4.00;85.70;;;;;;5072947;28;20696;-86
2021/03/22 07:50:26;;;;;;;5.28;3.47;;;4.10;84.70;;;;;;5072805;28;20206;-87
2021/03/22 07:52:56;;;;;;;8.68;3.83;;;4.10;84.10;;;;;;5071439;28;20203;-88
2021/03/22 07:55:46;;;;;;;14.48;4.50;;;4.30;84.40;;;;;;5072607;28;20241;-87
2021/03/22 07:58:44;;;;;;;13.43;4.32;;;4.20;83.40;;;;;;5071750;28;20199;-87
2021/03/22 08:01:16;;;;;;;13.32;3.45;;;4.20;83.60;;;;;;5072326;28;20234;-86
2021/03/22 08:04:31;;;;;;;12.13;3.78;;;4.10;83.10;;;;;;5071838;28;20199;-86
2021/03/22 08:07:04;;;;;;;17.27;3.55;;;4.10;82.30;;;;;;5008821;28;20267;-87
2021/03/22 08:09:48;;;;;;;9.55;3.75;;;4.20;82.30;;;;;;5009455;28;20324;-86
2021/03/22 08:12:20;;;;;;;12.00;3.80;;;4.10;82.70;;;;;;5047230;28;20207;-87
2021/03/22 08:14:48;;;;;;;10.18;2.95;;;4.10;83.10;;;;;;5071742;28;20669;-87
2021/03/22 08:17:26;;;;;;;11.38;4.65;;;4.40;82.80;;;;;;5071697;28;20202;-87
2021/03/22 08:20:00;;;;;;;7.93;3.75;;;4.70;81.30;;;;;;5071800;28;20252;-88
2021/03/22 08:22:32;;;;;;;14.95;4.10;;;5.00;81.80;;;;;;5072490;28;20195;-87
2021/03/22 08:25:15;;;;;;;8.20;3.22;;;4.50;79.40;;;;;;5071962;28;20210;-87
2021/03/22 08:27:47;;;;;;;6.40;2.50;;;4.50;80.50;;;;;;5071791;28;20226;-87
2021/03/22 08:30:29;;;;;;;8.70;3.17;;;4.60;79.70;;;;;;5072030;28;20203;-87
2021/03/22 08:33:00;;;;;;;9.23;3.65;;;4.40;79.80;;;;;;5071815;28;20203;-86
2021/03/22 08:35:36;;;;;;;12.15;3.53;;;4.70;80.60;;;;;;5071820;28;20435;-87
2021/03/22 08:38:07;;;;;;;8.30;3.45;;;4.60;79.50;;;;;;5072090;28;20256;-87
2021/03/22 08:40:43;;;;;;;5.22;2.05;;;4.80;79.30;;;;;;5071924;28;20199;-87
2021/03/22 08:43:16;;;;;;;6.07;2.50;;;4.60;79.30;;;;;;5071564;28;20203;-86
2021/03/22 08:45:55;;;;;;;8.50;3.22;;;4.80;80.50;;;;;;5071290;28;20215;-87
2021/03/22 08:48:26;;;;;;;8.07;3.80;;;5.20;79.40;;;;;;5070927;28;20203;-87
2021/03/22 08:50:55;;;;;;;5.88;2.65;;;5.30;77.60;;;;;;5071292;28;20199;-86
2021/03/22 08:53:24;;;;;;;5.47;2.88;;;5.20;77.40;;;;;;5071118;28;20214;-87
2021/03/22 08:56:00;;;;;;;10.60;3.80;;;5.30;78.10;;;;;;5071617;28;20199;-87
2021/03/22 08:58:32;;;;;;;4.93;2.65;;;5.30;78.00;;;;;;5071075;28;20649;-87
2021/03/22 09:01:18;;;;;;;6.95;3.05;;;5.50;77.80;;;;;;5071548;28;20215;-87
2021/03/22 09:03:47;;;;;;;10.00;2.75;;;5.50;77.70;;;;;;5071157;28;20252;-86
2021/03/22 09:06:17;;;;;;;4.93;3.05;;;5.60;75.90;;;;;;5071117;28;20222;-87
2021/03/22 09:09:05;;;;;;;5.90;2.47;;;5.40;75.40;;;;;;5071241;28;20680;-87
2021/03/22 09:11:39;;;;;;;7.72;2.90;;;5.60;77.10;;;;;;5071278;28;20203;-87
2021/03/22 09:14:18;;;;;;;9.68;3.55;;;5.50;76.70;;;;;;5070810;28;20219;-86
2021/03/22 09:16:46;;;;;;;4.85;3.00;;;5.60;77.70;;;;;;5070574;28;20223;-86
2021/03/22 09:19:45;;;;;;;7.95;2.53;;;4.90;76.80;;;;;;5050278;28;20627;-86
2021/03/22 09:22:55;;;;;;;6.55;2.80;;;5.20;77.60;;;;;;5050833;28;20211;-86
2021/03/22 09:26:01;;;;;;;11.30;2.63;;;4.80;78.70;;;;;;5064164;28;20195;-85
2021/03/22 09:29:13;;;;;;;10.20;2.45;;;4.80;78.50;;;;;;5070857;28;20610;-86
2021/03/22 09:31:45;;;;;;;4.63;3.00;;;4.60;78.90;;;;;;5070461;28;20207;-86
2021/03/22 09:34:42;;;;;;;4.93;2.53;;;4.80;79.30;;;;;;5070308;28;20203;-86
2021/03/22 09:37:46;;;;;;;4.25;3.28;;;5.20;79.50;;;;;;5070434;28;20199;-86
2021/03/22 09:40:52;;;;;;;7.68;3.20;;;5.00;79.00;;;;;;5070334;28;20631;-85
2021/03/22 09:43:33;;;;;;;8.95;2.70;;;5.60;79.70;;;;;;5070381;28;20203;-86
2021/03/22 09:46:23;;;;;;;8.27;2.72;;;5.40;77.70;;;;;;5070399;28;20692;-86
2021/03/22 09:49:19;;;;;;;4.63;2.55;;;5.40;78.00;;;;;;5071034;28;20210;-85
2021/03/22 09:51:49;;;;;;;6.75;2.78;;;5.10;78.90;;;;;;5070692;28;20234;-86
2021/03/22 09:54:42;;;;;;;3.83;2.88;;;5.00;79.50;;;;;;5069784;28;20260;-86
2021/03/22 09:57:30;;;;;;;7.00;3.60;;;5.80;79.90;;;;;;5055513;28;20276;-86
2021/03/22 10:00:20;;;;;;;7.53;3.03;;;5.70;77.50;;;;;;5073618;28;20689;-86
2021/03/22 10:02:50;;;;;;;6.35;2.60;;;5.70;77.10;;;;;;5073566;28;20203;-86
2021/03/22 10:05:20;;;;;;;5.50;2.88;;;6.00;77.00;;;;;;5074068;28;20206;-86
2021/03/22 10:07:59;;;;;;;4.70;2.50;;;5.80;75.30;;;;;;5073768;28;20707;-86
2021/03/22 10:10:31;;;;;;;7.63;3.33;;;5.90;76.20;;;;;;5074770;28;20207;-86
2021/03/22 10:13:05;;;;;;;10.23;3.05;;;6.10;75.80;;;;;;5074921;28;20203;-86
2021/03/22 10:15:38;;;;;;;6.40;3.22;;;6.70;75.70;;;;;;5075065;28;20719;-86
2021/03/22 10:18:10;;;;;;;8.45;3.00;;;6.60;74.50;;;;;;5074417;28;20301;-86
2021/03/22 10:20:41;;;;;;;8.40;3.45;;;7.20;75.30;;;;;;5074377;28;20204;-87
2021/03/22 10:23:22;;;;;;;7.50;3.55;;;7.20;72.90;;;;;;5074362;28;20207;-86
2021/03/22 10:25:51;;;;;;;5.35;3.17;;;7.60;72.80;;;;;;5074403;28;20276;-87
2021/03/22 10:28:22;;;;;;;7.82;2.95;;;7.70;71.30;;;;;;5074632;28;20200;-86
2021/03/22 10:31:00;;;;;;;6.95;3.22;;;7.20;72.10;;;;;;5075124;28;20207;-86
2021/03/22 10:33:28;;;;;;;7.53;2.85;;;6.90;70.30;;;;;;5074235;28;20203;-85
2021/03/22 10:35:58;;;;;;;7.03;3.22;;;6.90;72.00;;;;;;5074597;28;20195;-87
2021/03/22 10:38:27;;;;;;;5.65;3.55;;;6.90;72.00;;;;;;5074947;28;20222;-86
2021/03/22 10:40:55;;;;;;;4.70;2.95;;;6.70;72.40;;;;;;5075752;28;20210;-86
2021/03/22 10:43:26;;;;;;;8.25;3.17;;;6.90;72.90;;;;;;5074497;28;20268;-86
2021/03/22 10:45:53;;;;;;;3.72;3.38;;;6.70;72.90;;;;;;5075147;28;20264;-86
2021/03/22 10:48:24;;;;;;;9.43;3.45;;;6.60;72.90;;;;;;5074938;28;20216;-86
2021/03/22 10:51:10;;;;;;;4.57;2.83;;;6.10;72.90;;;;;;5073853;28;20199;-87
2021/03/22 10:53:52;;;;;;;8.57;3.60;;;6.30;74.70;;;;;;5072962;28;20290;-86
2021/03/22 10:56:23;;;;;;;6.18;3.97;;;5.80;74.90;;;;;;5073738;28;20195;-87
2021/03/22 10:58:51;;;;;;;5.30;3.50;;;5.40;76.40;;;;;;5073185;28;20215;-87
2021/03/22 11:01:19;;;;;;;7.15;2.53;;;5.40;78.10;;;;;;5074036;28;20770;-86
2021/03/22 11:03:49;;;;;;;6.00;3.65;;;5.40;79.80;;;;;;5073093;28;20209;-86
2021/03/22 11:06:29;;;;;;;6.72;3.53;;;5.40;81.00;;;;;;5074074;28;20233;-87
2021/03/22 11:08:58;;;;;;;6.88;2.95;;;5.50;80.50;;;;;;5073305;28;20218;-86
2021/03/22 11:11:28;;;;;;;4.97;3.17;;;5.60;80.70;;;;;;5072126;28;20304;-86
2021/03/22 11:13:58;;;;;;;6.28;3.03;;;5.70;79.70;;;;;;5072900;28;20595;-87
2021/03/22 11:16:28;;;;;;;6.95;3.85;;;5.60;79.10;;;;;;5073817;28;20726;-86
2021/03/22 11:18:57;;;;;;;5.45;3.72;;;5.90;79.50;;;;;;5073076;28;20581;-86
2021/03/22 11:21:26;;;;;;;11.20;3.60;;;6.20;79.50;;;;;;5073919;28;20199;-86
2021/03/22 11:23:54;;;;;;;3.63;3.15;;;6.50;78.20;;;;;;5072746;28;20207;-87
2021/03/22 11:26:24;;;;;;;4.63;3.03;;;5.80;75.90;;;;;;5073515;28;20223;-87
2021/03/22 11:28:52;;;;;;;6.88;3.30;;;6.00;77.50;;;;;;5073200;28;20199;-86
2021/03/22 11:31:24;;;;;;;8.63;3.50;;;5.80;76.60;;;;;;5073098;28;20653;-86
2021/03/22 11:34:03;;;;;;;4.55;3.05;;;5.70;76.30;;;;;;5072567;28;20231;-86
2021/03/22 11:36:36;;;;;;;4.28;3.10;;;5.90;77.00;;;;;;5072687;28;20195;-86
2021/03/22 11:39:11;;;;;;;11.07;2.90;;;6.40;77.10;;;;;;5073465;28;20206;-86
2021/03/22 11:41:40;;;;;;;3.42;2.60;;;6.40;75.80;;;;;;5072672;28;20226;-86
2021/03/22 11:44:21;;;;;;;9.70;3.67;;;6.80;76.10;;;;;;5072534;28;20207;-86
2021/03/22 11:46:51;;;;;;;6.45;3.15;;;6.80;74.60;;;;;;5072726;28;20229;-86
2021/03/22 11:49:37;;;;;;;3.47;2.65;;;6.20;74.00;;;;;;5072638;28;20195;-86
2021/03/22 11:52:15;;;;;;;10.80;3.35;;;6.60;75.50;;;;;;5072714;28;20210;-87
2021/03/22 11:54:49;;;;;;;8.82;4.03;;;6.10;74.90;;;;;;5071590;28;20234;-86
2021/03/22 11:57:19;;;;;;;6.68;4.18;;;5.70;75.10;;;;;;5071262;28;20203;-86
2021/03/22 11:59:51;;;;;;;8.50;3.90;;;5.80;76.40;;;;;;5071655;28;20616;-87
2021/03/22 12:02:27;;;;;;;4.30;2.95;;;6.10;76.30;;;;;;5071688;28;20199;-87
2021/03/22 12:04:55;;;;;;;13.68;3.80;;;6.00;76.20;;;;;;5071449;28;20203;-86
2021/03/22 12:07:38;;;;;;;8.85;3.53;;;6.10;75.50;;;;;;5071493;28;20214;-86
2021/03/22 12:10:06;;;;;;;7.95;3.97;;;6.40;74.90;;;;;;5071389;28;20698;-86
2021/03/22 12:12:33;;;;;;;7.97;3.60;;;6.90;74.80;;;;;;5071948;28;20249;-86
2021/03/22 12:14:59;;;;;;;10.52;4.30;;;6.90;73.00;;;;;;5071623;28;20206;-86
2021/03/22 12:17:31;;;;;;;5.40;3.00;;;7.30;73.50;;;;;;5071207;28;20263;-86
2021/03/22 12:19:58;;;;;;;4.75;2.92;;;7.50;72.90;;;;;;5071461;28;20651;-86
2021/03/22 12:22:25;;;;;;;7.00;3.75;;;7.40;71.30;;;;;;5070427;28;20225;-85
2021/03/22 12:24:52;;;;;;;11.20;3.92;;;7.70;72.40;;;;;;5071267;28;20207;-87
2021/03/22 12:27:21;;;;;;;7.60;3.58;;;7.30;69.80;;;;;;5071071;28;20223;-87
2021/03/22 12:29:47;;;;;;;7.40;3.45;;;7.30;70.40;;;;;;5071242;28;20207;-86
2021/03/22 12:32:19;;;;;;;6.82;3.30;;;7.10;70.70;;;;;;5071145;28;20218;-87
2021/03/22 12:34:46;;;;;;;5.32;3.30;;;7.00;70.20;;;;;;5070423;28;20235;-86
2021/03/22 12:37:22;;;;;;;4.22;3.45;;;6.70;70.40;;;;;;5070871;28;20203;-87
2021/03/22 12:39:48;;;;;;;6.53;3.13;;;6.30;72.20;;;;;;5071154;28;20199;-86
2021/03/22 12:42:15;;;;;;;5.65;3.28;;;5.90;73.40;;;;;;5070959;28;20653;-86
2021/03/22 12:44:43;;;;;;;5.13;3.45;;;5.90;73.60;;;;;;5070353;28;20203;-87
2021/03/22 12:47:15;;;;;;;3.90;2.72;;;5.90;73.40;;;;;;5070797;28;20777;-86
2021/03/22 12:49:42;;;;;;;3.83;3.03;;;6.10;74.60;;;;;;5070984;28;20640;-87
2021/03/22 12:52:09;;;;;;;4.95;3.15;;;6.10;74.10;;;;;;5070817;28;20199;-86
2021/03/22 12:54:36;;;;;;;7.40;3.50;;;6.00;74.00;;;;;;5070459;28;20632;-87
2021/03/22 12:57:03;;;;;;;10.02;3.33;;;6.20;74.20;;;;;;5069931;28;20203;-86
2021/03/22 12:59:35;;;;;;;6.80;2.90;;;6.30;74.30;;;;;;5070540;28;20264;-87
2021/03/22 13:02:11;;;;;;;5.38;3.35;;;6.30;73.40;;;;;;5070625;28;20604;-86
2021/03/22 13:04:38;;;;;;;5.45;2.67;;;6.40;73.80;;;;;;5070296;28;20203;-86
2021/03/22 13:07:05;;;;;;;5.15;3.10;;;6.20;73.50;;;;;;5070826;28;20234;-86
2021/03/22 13:09:32;;;;;;;4.63;3.03;;;6.30;73.70;;;;;;5070572;28;20221;-86
2021/03/22 13:11:59;;;;;;;5.68;2.92;;;6.40;73.90;;;;;;5071149;28;20211;-85
2021/03/22 13:14:25;;;;;;;3.25;2.85;;;6.30;71.90;;;;;;5070393;28;20506;-87
2021/03/22 13:16:53;;;;;;;5.03;3.30;;;6.10;72.90;;;;;;5070338;28;20191;-86
2021/03/22 13:19:20;;;;;;;6.10;3.10;;;5.90;73.60;;;;;;5070146;28;20217;-86
2021/03/22 13:21:47;;;;;;;4.25;3.78;;;6.00;73.50;;;;;;5071006;28;20680;-85